createdAt,value
2022-10-17T00:04:03.742Z,16.11
2022-10-17T00:09:05.951Z,16.05
2022-10-17T00:14:08.416Z,16.01
2022-10-17T00:19:23.936Z,16.01
2022-10-17T00:24:26.276Z,16.08
2022-10-17T00:29:30.910Z,16.20
2022-10-17T00:34:33.218Z,16.29
2022-10-17T00:39:35.497Z,16.17
2022-10-17T00:44:40.465Z,16.04
2022-10-17T00:49:47.439Z,15.92
2022-10-17T00:54:54.103Z,16.02
2022-10-17T00:59:58.010Z,15.93
2022-10-17T01:05:00.563Z,15.85
2022-10-17T01:10:02.820Z,15.92
2022-10-17T01:15:16.343Z,15.91
2022-10-17T01:20:18.568Z,15.91
2022-10-17T01:25:29.407Z,15.90
2022-10-17T01:30:50.293Z,15.93
2022-10-17T01:36:04.796Z,15.86
2022-10-17T01:41:11.617Z,15.83
2022-10-17T01:46:17.943Z,15.74
2022-10-17T01:51:27.691Z,15.89
2022-10-17T01:56:33.434Z,15.91
2022-10-17T02:01:37.072Z,15.77
2022-10-17T02:06:41.588Z,15.72
2022-10-17T02:11:58.808Z,15.86
2022-10-17T02:17:21.167Z,15.94
2022-10-17T02:22:38.249Z,16.04
2022-10-17T02:28:02.175Z,16.17
2022-10-17T02:33:10.129Z,16.04
2022-10-17T02:38:12.636Z,16.08
2022-10-17T02:43:15.080Z,16.19
2022-10-17T02:48:46.004Z,16.24
2022-10-17T02:53:57.178Z,16.20
2022-10-17T02:59:05.587Z,16.49
2022-10-17T03:04:09.348Z,16.48
2022-10-17T03:09:12.155Z,16.40
2022-10-17T03:14:16.326Z,16.49
2022-10-17T03:19:20.290Z,16.39
2022-10-17T03:24:22.962Z,16.33
2022-10-17T03:29:31.688Z,16.35
2022-10-17T03:34:34.433Z,16.33
2022-10-17T03:39:38.588Z,16.26
2022-10-17T03:44:46.095Z,16.27
2022-10-17T03:49:48.631Z,16.10
2022-10-17T03:54:53.688Z,16.12
2022-10-17T04:00:16.228Z,16.14
2022-10-17T04:05:33.687Z,16.13
2022-10-17T04:10:36.177Z,15.92
2022-10-17T04:15:38.444Z,15.82
2022-10-17T04:20:41.329Z,15.83
2022-10-17T04:25:44.909Z,15.87
2022-10-17T04:30:49.897Z,15.66
2022-10-17T04:36:01.113Z,15.55
2022-10-17T04:41:05.378Z,15.52
2022-10-17T04:46:11.476Z,15.46
2022-10-17T04:51:15.485Z,15.39
2022-10-17T04:56:44.064Z,15.41
2022-10-17T05:01:46.349Z,15.44
2022-10-17T05:06:48.834Z,15.35
2022-10-17T05:12:11.451Z,15.33
2022-10-17T05:17:17.773Z,15.32
2022-10-17T05:22:22.487Z,15.38
2022-10-17T05:27:24.820Z,15.35
2022-10-17T05:32:27.455Z,15.34
2022-10-17T05:37:33.344Z,15.33
2022-10-17T05:42:37.536Z,15.36
2022-10-17T05:47:41.036Z,15.56
2022-10-17T05:52:46.474Z,15.55
2022-10-17T05:57:52.919Z,15.62
2022-10-17T06:02:57.920Z,15.82
2022-10-17T06:08:01.998Z,16.04
2022-10-17T06:13:09.199Z,16.18
2022-10-17T06:18:11.858Z,16.40
2022-10-17T06:23:14.454Z,16.67
2022-10-17T06:28:37.171Z,16.99
2022-10-17T06:33:42.066Z,17.20
2022-10-17T06:38:45.157Z,17.31
2022-10-17T06:44:09.679Z,17.50
2022-10-17T06:49:25.246Z,17.94
2022-10-17T06:54:34.724Z,18.16
2022-10-17T06:59:55.609Z,18.30
2022-10-17T07:05:03.631Z,19.34
2022-10-17T07:10:08.796Z,19.89
2022-10-17T07:15:15.870Z,20.16
2022-10-17T07:20:20.936Z,20.15
2022-10-17T07:25:25.663Z,19.86
2022-10-17T07:30:33.041Z,19.59
2022-10-17T07:35:43.528Z,19.53
2022-10-17T07:46:47.385Z,19.58
2022-10-17T07:51:52.911Z,19.97
2022-10-17T07:56:59.432Z,20.01
2022-10-17T08:02:01.840Z,19.98
2022-10-17T08:07:19.717Z,20.19
2022-10-17T08:12:25.155Z,20.16
2022-10-17T08:17:27.546Z,20.06
2022-10-17T08:22:30.134Z,20.20
2022-10-17T08:27:33.782Z,20.37
2022-10-17T08:32:36.134Z,20.41
2022-10-17T08:37:38.423Z,20.60
2022-10-17T08:42:43.785Z,20.57
2022-10-17T08:47:49.076Z,20.63
2022-10-17T08:52:54.755Z,21.02
2022-10-17T08:57:57.099Z,20.90
2022-10-17T09:03:08.453Z,21.45
2022-10-17T09:08:13.711Z,21.53
2022-10-17T09:13:18.578Z,21.79
2022-10-17T09:18:34.088Z,22.02
2022-10-17T09:23:42.699Z,22.10
2022-10-17T09:28:46.669Z,22.19
2022-10-17T09:33:54.159Z,22.27
2022-10-17T09:39:16.023Z,22.32
2022-10-17T09:44:20.345Z,22.06
2022-10-17T09:49:29.426Z,22.41
2022-10-17T09:54:56.919Z,22.05
2022-10-17T10:00:00.704Z,22.26
2022-10-17T10:05:04.731Z,22.47
2022-10-17T10:10:23.072Z,22.49
2022-10-17T10:15:37.157Z,22.53
2022-10-17T10:20:39.425Z,22.52
2022-10-17T10:26:20.164Z,22.27
2022-10-17T10:31:30.903Z,22.39
2022-10-17T10:36:43.899Z,22.18
2022-10-17T10:41:47.749Z,21.99
2022-10-17T10:47:11.620Z,22.11
2022-10-17T10:52:24.198Z,22.17
2022-10-17T10:57:29.475Z,22.12
2022-10-17T11:02:40.422Z,22.16
2022-10-17T11:07:45.907Z,22.03
2022-10-17T11:13:17.858Z,22.09
2022-10-17T11:18:35.096Z,21.90
2022-10-17T11:23:46.656Z,21.89
2022-10-17T11:28:49.090Z,21.85
2022-10-17T11:33:51.329Z,22.09
2022-10-17T11:39:02.485Z,21.97
2022-10-17T11:44:13.705Z,22.11
2022-10-17T11:49:28.643Z,22.08
2022-10-17T11:54:39.700Z,22.08
2022-10-17T12:00:00.549Z,21.89
2022-10-17T12:05:21.643Z,21.97
2022-10-17T12:10:37.621Z,22.00
2022-10-17T12:15:42.619Z,22.10
2022-10-17T12:20:58.133Z,21.85
2022-10-17T12:26:05.460Z,21.96
2022-10-17T12:31:13.756Z,21.63
2022-10-17T12:36:22.848Z,21.68
2022-10-17T12:41:49.616Z,21.76
2022-10-17T12:46:59.598Z,21.58
2022-10-17T12:52:23.977Z,21.45
2022-10-17T12:57:44.234Z,21.70
2022-10-17T13:02:46.716Z,21.61
2022-10-17T13:07:49.882Z,21.69
2022-10-17T13:12:54.744Z,21.57
2022-10-17T13:18:02.855Z,21.56
2022-10-17T13:23:05.139Z,21.64
2022-10-17T13:28:14.489Z,21.47
2022-10-17T13:33:26.977Z,21.55
2022-10-17T13:38:32.479Z,21.50
2022-10-17T13:43:35.025Z,21.68
2022-10-17T13:48:40.424Z,21.50
2022-10-17T13:53:46.368Z,21.41
2022-10-17T13:58:51.985Z,21.27
2022-10-17T14:10:32.520Z,21.24
2022-10-17T14:15:35.759Z,21.25
2022-10-17T14:21:19.762Z,21.36
2022-10-17T14:26:07.856Z,21.15
2022-10-17T14:31:15.916Z,21.17
2022-10-17T14:36:19.484Z,21.18
2022-10-17T14:41:43.245Z,21.10
2022-10-17T14:46:50.492Z,21.09
2022-10-17T14:52:15.209Z,20.92
